createdAt,value
2018-06-25T00:01:49.956Z,18.17
2018-06-25T00:04:19.904Z,18.07
2018-06-25T00:06:49.774Z,18.08
2018-06-25T00:09:19.668Z,18.09
2018-06-25T00:11:49.528Z,18.10
2018-06-25T00:14:19.352Z,18.06
2018-06-25T00:16:49.196Z,18.08
2018-06-25T00:19:19.092Z,18.09
2018-06-25T00:21:49.007Z,18.08
2018-06-25T00:24:18.810Z,18.10
2018-06-25T00:26:48.659Z,18.03
2018-06-25T00:29:18.569Z,17.36
2018-06-25T00:31:48.392Z,18.14
2018-06-25T00:34:18.262Z,18.18
2018-06-25T00:36:48.148Z,18.20
2018-06-25T00:39:18.029Z,18.23
2018-06-25T00:41:47.836Z,18.31
2018-06-25T00:44:17.700Z,18.36
2018-06-25T00:46:47.560Z,18.41
2018-06-25T00:49:17.396Z,18.37
2018-06-25T00:51:47.200Z,18.42
2018-06-25T00:54:17.055Z,18.42
2018-06-25T00:56:46.915Z,18.35
2018-06-25T00:59:27.700Z,18.34
2018-06-25T01:01:57.511Z,18.29
2018-06-25T01:04:27.384Z,18.27
2018-06-25T01:06:57.272Z,18.31
2018-06-25T01:09:27.296Z,18.31
2018-06-25T01:11:57.268Z,18.39
2018-06-25T01:14:27.117Z,18.37
2018-06-25T01:16:56.989Z,18.35
2018-06-25T01:19:26.792Z,18.37
2018-06-25T01:21:56.700Z,18.41
2018-06-25T01:24:26.568Z,18.35
2018-06-25T01:26:56.455Z,18.34
2018-06-25T01:29:26.331Z,18.36
2018-06-25T01:31:56.352Z,18.37
2018-06-25T01:34:26.349Z,18.32
2018-06-25T01:36:56.186Z,18.24
2018-06-25T01:39:25.973Z,18.15
2018-06-25T01:41:55.828Z,18.07
2018-06-25T01:44:25.660Z,18.09
2018-06-25T01:46:55.512Z,18.07
2018-06-25T01:49:25.477Z,18.00
2018-06-25T01:51:55.404Z,17.91
2018-06-25T01:54:25.384Z,17.91
2018-06-25T01:56:55.205Z,17.86
2018-06-25T01:59:25.050Z,17.83
2018-06-25T02:01:54.904Z,17.76
2018-06-25T02:04:24.811Z,17.70
2018-06-25T02:06:54.657Z,17.71
2018-06-25T02:09:24.466Z,17.69
2018-06-25T02:11:54.335Z,17.67
2018-06-25T02:14:24.176Z,17.67
2018-06-25T02:16:54.060Z,17.75
2018-06-25T02:19:23.888Z,17.80
2018-06-25T02:21:53.781Z,17.83
2018-06-25T02:24:23.654Z,17.79
2018-06-25T02:26:53.594Z,17.76
2018-06-25T02:29:23.449Z,17.75
2018-06-25T02:31:53.248Z,17.74
2018-06-25T02:34:23.084Z,17.77
2018-06-25T02:36:52.971Z,17.80
2018-06-25T02:39:22.797Z,17.82
2018-06-25T02:41:52.657Z,17.84
2018-06-25T02:44:22.489Z,17.83
2018-06-25T02:46:52.435Z,17.87
2018-06-25T02:49:22.261Z,17.83
2018-06-25T02:51:52.174Z,17.81
2018-06-25T02:54:22.024Z,17.80
2018-06-25T02:56:52.208Z,17.78
2018-06-25T02:59:22.100Z,17.81
2018-06-25T03:01:52.129Z,17.81
2018-06-25T03:04:21.972Z,17.84
2018-06-25T03:06:51.835Z,17.88
2018-06-25T03:09:21.709Z,17.88
2018-06-25T03:11:51.524Z,17.96
2018-06-25T03:14:22.676Z,18.03
2018-06-25T03:16:52.583Z,18.12
2018-06-25T03:19:22.412Z,18.17
2018-06-25T03:21:52.325Z,18.23
2018-06-25T03:24:22.254Z,18.32
2018-06-25T03:26:52.139Z,18.29
2018-06-25T03:29:21.920Z,18.36
2018-06-25T03:31:51.936Z,18.49
2018-06-25T03:34:21.745Z,18.65
2018-06-25T03:36:51.581Z,18.77
2018-06-25T03:39:21.425Z,18.90
2018-06-25T03:41:51.259Z,19.02
2018-06-25T03:44:21.112Z,19.06
2018-06-25T03:46:50.960Z,19.07
2018-06-25T03:49:20.792Z,19.09
2018-06-25T03:51:50.634Z,19.14
2018-06-25T03:54:20.492Z,19.16
2018-06-25T03:56:50.344Z,19.19
2018-06-25T03:59:20.217Z,19.13
2018-06-25T04:01:50.050Z,19.09
2018-06-25T04:04:19.956Z,19.20
2018-06-25T04:06:49.785Z,19.24
2018-06-25T04:09:19.640Z,19.32
2018-06-25T04:11:49.486Z,19.32
2018-06-25T04:14:19.301Z,19.35
2018-06-25T04:16:49.179Z,19.36
2018-06-25T04:19:18.992Z,19.46
2018-06-25T04:21:49.056Z,19.48
2018-06-25T04:24:18.896Z,19.50
2018-06-25T04:26:48.741Z,19.64
2018-06-25T04:29:18.580Z,19.68
2018-06-25T04:31:48.464Z,19.72
2018-06-25T04:34:18.328Z,19.97
2018-06-25T04:36:48.236Z,19.98
2018-06-25T04:39:18.063Z,20.14
2018-06-25T04:41:47.922Z,20.07
2018-06-25T04:44:17.768Z,20.27
2018-06-25T04:46:47.664Z,20.68
2018-06-25T04:49:17.480Z,21.00
2018-06-25T04:51:47.396Z,21.29
2018-06-25T04:54:17.297Z,21.21
2018-06-25T04:56:47.300Z,21.56
2018-06-25T04:59:17.094Z,21.47
2018-06-25T05:01:46.953Z,21.48
2018-06-25T05:04:16.842Z,21.61
2018-06-25T05:06:46.793Z,21.80
2018-06-25T05:09:16.593Z,22.21
2018-06-25T05:11:46.452Z,22.52
2018-06-25T05:14:16.265Z,22.33
2018-06-25T05:16:46.116Z,22.58
2018-06-25T05:19:15.988Z,23.01
2018-06-25T05:21:45.880Z,22.92
2018-06-25T05:24:15.697Z,23.12
2018-06-25T05:26:45.583Z,23.26
2018-06-25T05:29:15.519Z,23.29
2018-06-25T05:31:45.436Z,23.60
2018-06-25T05:34:15.299Z,23.74
2018-06-25T05:36:45.172Z,23.83
2018-06-25T05:39:15.074Z,23.60
2018-06-25T05:41:45.744Z,23.81
2018-06-25T05:44:15.589Z,23.87
2018-06-25T05:46:47.252Z,24.49
2018-06-25T05:49:18.225Z,24.94
2018-06-25T05:51:48.112Z,24.98
2018-06-25T05:54:17.998Z,24.79
2018-06-25T05:56:47.861Z,24.69
2018-06-25T05:59:17.748Z,24.49
2018-06-25T06:01:47.644Z,25.07
2018-06-25T06:04:17.638Z,25.45
2018-06-25T06:06:47.706Z,25.34
2018-06-25T06:09:17.589Z,25.64
2018-06-25T06:11:47.460Z,25.02
2018-06-25T06:14:18.337Z,25.43
2018-06-25T06:16:48.364Z,25.14
2018-06-25T06:19:18.240Z,25.10
2018-06-25T06:21:48.184Z,25.53
2018-06-25T06:24:18.031Z,25.75
2018-06-25T06:26:47.880Z,25.88
2018-06-25T06:29:17.732Z,25.69
2018-06-25T06:31:47.617Z,25.80
2018-06-25T06:34:17.492Z,25.85
2018-06-25T06:36:47.509Z,25.87
2018-06-25T06:39:17.465Z,26.21
2018-06-25T06:41:47.378Z,26.35
2018-06-25T06:44:17.288Z,26.73
2018-06-25T06:46:47.212Z,26.84
2018-06-25T06:49:17.300Z,26.29
2018-06-25T06:51:48.112Z,26.64
2018-06-25T06:54:18.004Z,26.21
2018-06-25T06:56:47.966Z,26.12
2018-06-25T06:59:17.890Z,25.86
2018-06-25T07:01:47.868Z,25.89
2018-06-25T07:04:17.748Z,26.49
2018-06-25T07:06:47.680Z,26.64
2018-06-25T07:09:17.569Z,26.61
2018-06-25T07:11:47.503Z,26.80
2018-06-25T07:14:17.367Z,26.93
2018-06-25T07:16:47.273Z,27.23
2018-06-25T07:19:17.164Z,27.40
2018-06-25T07:21:47.029Z,27.44
2018-06-25T07:24:16.909Z,27.23
2018-06-25T07:26:46.825Z,26.80
2018-06-25T07:29:16.785Z,26.89
2018-06-25T07:31:46.577Z,27.01
2018-06-25T07:34:16.460Z,27.08
2018-06-25T07:36:46.395Z,26.56
2018-06-25T07:39:16.340Z,26.95
2018-06-25T07:41:46.416Z,27.10
2018-06-25T07:44:16.428Z,26.92
2018-06-25T07:46:46.469Z,27.11
2018-06-25T07:49:16.430Z,26.62
2018-06-25T07:51:46.252Z,26.61
2018-06-25T07:54:16.180Z,26.61
2018-06-25T07:56:46.077Z,26.81
2018-06-25T07:59:15.891Z,27.00
2018-06-25T08:01:45.819Z,27.36
2018-06-25T08:04:16.164Z,27.04
2018-06-25T08:06:46.180Z,27.17
2018-06-25T08:09:16.188Z,27.27
2018-06-25T08:11:46.110Z,26.98
2018-06-25T08:14:16.825Z,26.99
2018-06-25T08:16:46.978Z,26.96
2018-06-25T08:19:16.760Z,27.21
2018-06-25T08:21:46.662Z,27.56
2018-06-25T08:24:16.617Z,27.64
2018-06-25T08:26:46.567Z,27.49
2018-06-25T08:29:16.552Z,27.61
2018-06-25T08:31:46.524Z,27.72
2018-06-25T08:34:16.479Z,27.75
2018-06-25T08:36:46.364Z,28.07
2018-06-25T08:39:16.305Z,28.27
2018-06-25T08:41:46.317Z,28.04
2018-06-25T08:44:16.220Z,27.93
2018-06-25T08:46:46.240Z,27.83
2018-06-25T08:49:16.113Z,27.98
2018-06-25T08:51:46.127Z,27.99
2018-06-25T08:54:16.069Z,28.07
2018-06-25T08:56:45.931Z,27.81
2018-06-25T08:59:15.897Z,27.83
2018-06-25T09:01:45.866Z,27.79
2018-06-25T09:04:15.840Z,27.94
2018-06-25T09:06:45.708Z,28.16
2018-06-25T09:09:15.595Z,28.04
2018-06-25T09:11:45.445Z,28.36
2018-06-25T09:14:15.320Z,28.56
2018-06-25T09:16:45.210Z,28.57
2018-06-25T09:19:15.072Z,28.38
2018-06-25T09:21:44.949Z,28.30
2018-06-25T09:24:14.824Z,28.40
2018-06-25T09:26:44.728Z,28.60
2018-06-25T09:29:14.653Z,28.76
2018-06-25T09:31:44.544Z,28.78
2018-06-25T09:34:19.445Z,28.92
2018-06-25T09:36:49.396Z,28.99
2018-06-25T09:39:19.396Z,28.59
2018-06-25T09:41:49.333Z,28.00
2018-06-25T09:44:19.283Z,28.70
2018-06-25T09:46:49.164Z,28.69
2018-06-25T09:49:19.145Z,28.30
2018-06-25T09:51:49.132Z,28.30
2018-06-25T09:54:18.968Z,28.34
2018-06-25T09:56:48.894Z,28.38
2018-06-25T09:59:18.879Z,28.40
2018-06-25T10:01:48.787Z,28.48
2018-06-25T10:04:18.708Z,28.56
2018-06-25T10:06:48.620Z,28.74
2018-06-25T10:09:18.475Z,28.72
2018-06-25T10:11:48.348Z,28.37
2018-06-25T10:14:18.257Z,28.96
2018-06-25T10:16:48.166Z,29.01
2018-06-25T10:19:18.017Z,29.20
2018-06-25T10:21:47.984Z,28.84
2018-06-25T10:24:17.853Z,29.14
2018-06-25T10:26:47.740Z,29.04
2018-06-25T10:29:17.688Z,29.16
2018-06-25T10:31:47.516Z,29.07
2018-06-25T10:34:17.457Z,29.19
2018-06-25T10:36:47.387Z,29.15
2018-06-25T10:39:17.359Z,28.95
2018-06-25T10:41:47.286Z,29.03
2018-06-25T10:44:17.227Z,28.88
2018-06-25T10:46:47.060Z,28.84
2018-06-25T10:49:17.076Z,28.88
2018-06-25T10:51:47.020Z,28.76
2018-06-25T10:54:16.965Z,28.82
2018-06-25T10:56:46.864Z,28.82
2018-06-25T10:59:16.733Z,28.87
2018-06-25T11:01:46.585Z,28.83
2018-06-25T11:04:16.595Z,28.57
2018-06-25T11:06:46.573Z,29.00
2018-06-25T11:09:16.661Z,29.09
2018-06-25T11:11:46.592Z,29.35
2018-06-25T11:14:16.461Z,29.12
2018-06-25T11:16:46.384Z,29.21
2018-06-25T11:19:16.230Z,29.39
2018-06-25T11:21:46.149Z,29.52
2018-06-25T11:24:16.329Z,29.60
2018-06-25T11:26:46.347Z,29.62
2018-06-25T11:29:16.357Z,29.66
2018-06-25T11:31:46.274Z,29.68
2018-06-25T11:34:16.260Z,29.17
2018-06-25T11:36:46.108Z,29.82
2018-06-25T11:39:15.958Z,29.42
2018-06-25T11:41:45.900Z,29.19
2018-06-25T11:44:15.790Z,29.35
2018-06-25T11:46:45.724Z,29.65
2018-06-25T11:49:15.556Z,29.70
2018-06-25T11:51:45.486Z,29.63
2018-06-25T11:54:15.308Z,29.86
2018-06-25T11:56:45.308Z,29.81
2018-06-25T11:59:15.176Z,29.70
2018-06-25T12:01:45.122Z,29.90
2018-06-25T12:04:15.307Z,29.88
2018-06-25T12:06:45.428Z,29.75
2018-06-25T12:09:15.453Z,29.79
2018-06-25T12:11:45.276Z,29.46
2018-06-25T12:14:15.166Z,29.44
2018-06-25T12:16:45.104Z,29.55
2018-06-25T12:19:15.034Z,29.41
2018-06-25T12:21:44.880Z,29.58
2018-06-25T12:24:14.736Z,29.25
2018-06-25T12:26:44.717Z,29.78
2018-06-25T12:29:14.765Z,29.85
2018-06-25T12:31:44.697Z,29.87
2018-06-25T12:34:14.614Z,30.13
2018-06-25T12:36:44.533Z,30.26
2018-06-25T12:39:14.532Z,30.31
2018-06-25T12:41:44.556Z,30.43
2018-06-25T12:44:14.409Z,30.40
2018-06-25T12:46:44.319Z,30.39
2018-06-25T12:49:14.245Z,30.45
2018-06-25T12:51:44.156Z,30.51
2018-06-25T12:54:14.088Z,30.57
2018-06-25T12:56:43.984Z,30.47
2018-06-25T12:59:13.922Z,30.70
2018-06-25T13:01:44.020Z,30.79
2018-06-25T13:04:13.956Z,30.94
2018-06-25T13:06:43.990Z,30.79
2018-06-25T13:09:14.218Z,30.54
2018-06-25T13:11:44.080Z,30.45
2018-06-25T13:14:13.958Z,29.99
2018-06-25T13:16:43.805Z,30.17
2018-06-25T13:19:13.722Z,30.20
2018-06-25T13:21:43.560Z,30.17
2018-06-25T13:24:14.112Z,29.98
2018-06-25T13:26:43.972Z,30.10
2018-06-25T13:29:13.983Z,30.04
2018-06-25T13:31:44.025Z,29.85
2018-06-25T13:34:14.091Z,29.38
2018-06-25T13:36:44.064Z,29.82
2018-06-25T13:39:13.987Z,30.06
2018-06-25T13:41:43.908Z,30.17
2018-06-25T13:44:13.731Z,30.14
2018-06-25T13:46:43.692Z,30.33
2018-06-25T13:49:13.600Z,30.19
2018-06-25T13:51:43.521Z,30.36
2018-06-25T13:54:13.951Z,30.53
2018-06-25T13:56:43.944Z,30.42
2018-06-25T13:59:13.961Z,30.30
2018-06-25T14:01:43.932Z,30.14
2018-06-25T14:04:13.877Z,30.04
2018-06-25T14:06:44.968Z,29.76
2018-06-25T14:09:14.892Z,29.54
2018-06-25T14:11:44.792Z,29.59
2018-06-25T14:14:14.658Z,29.47
2018-06-25T14:16:44.778Z,29.48
2018-06-25T14:19:14.609Z,29.44
2018-06-25T14:21:44.469Z,29.46
2018-06-25T14:24:19.564Z,29.47
2018-06-25T14:26:49.475Z,29.37
2018-06-25T14:29:24.335Z,29.57
2018-06-25T14:31:58.396Z,29.48
2018-06-25T14:34:28.230Z,29.54
2018-06-25T14:36:58.116Z,29.70
2018-06-25T14:39:27.980Z,29.69
2018-06-25T14:41:57.868Z,29.57
2018-06-25T14:44:27.753Z,29.50
2018-06-25T14:46:57.621Z,29.65
2018-06-25T14:49:27.523Z,29.73
2018-06-25T14:51:57.403Z,29.71
2018-06-25T14:54:27.856Z,29.57
2018-06-25T14:56:57.708Z,29.62
2018-06-25T14:59:27.562Z,29.32
2018-06-25T15:01:57.402Z,29.12
2018-06-25T15:04:27.257Z,29.17
2018-06-25T15:06:57.092Z,29.29
2018-06-25T15:09:26.956Z,29.33
2018-06-25T15:11:56.798Z,28.98
2018-06-25T15:14:26.684Z,28.94
2018-06-25T15:16:56.504Z,28.99
2018-06-25T15:19:26.379Z,28.67
2018-06-25T15:21:56.278Z,28.82
2018-06-25T15:24:26.173Z,28.86
2018-06-25T15:26:56.041Z,28.78
2018-06-25T15:29:25.870Z,28.18
2018-06-25T15:31:55.777Z,28.73
2018-06-25T15:34:25.650Z,28.73
2018-06-25T15:36:55.536Z,28.73
2018-06-25T15:39:25.384Z,28.82
2018-06-25T15:41:55.284Z,28.60
2018-06-25T15:44:25.122Z,28.55
2018-06-25T15:46:54.968Z,28.65
2018-06-25T15:49:24.780Z,28.70
2018-06-25T15:51:54.580Z,28.64
2018-06-25T15:54:24.452Z,28.70
2018-06-25T15:56:54.252Z,28.79
2018-06-25T15:59:24.181Z,28.91
2018-06-25T16:01:54.023Z,28.82
2018-06-25T16:04:23.864Z,28.82
2018-06-25T16:06:53.701Z,28.74
2018-06-25T16:09:23.568Z,28.69
2018-06-25T16:11:53.553Z,28.62
2018-06-25T16:14:23.425Z,28.47
2018-06-25T16:16:53.295Z,28.38
2018-06-25T16:19:23.115Z,28.32
2018-06-25T16:21:52.973Z,28.11
2018-06-25T16:24:23.100Z,28.06
2018-06-25T16:26:53.124Z,27.96
2018-06-25T16:29:23.071Z,27.84
2018-06-25T16:31:53.372Z,27.77
2018-06-25T16:34:23.236Z,27.56
2018-06-25T16:36:53.144Z,27.52
2018-06-25T16:39:22.939Z,27.37
2018-06-25T16:41:52.772Z,27.27
2018-06-25T16:44:22.652Z,27.12
2018-06-25T16:46:52.476Z,27.10
2018-06-25T16:49:22.309Z,27.03
2018-06-25T16:51:52.133Z,26.94
2018-06-25T16:54:21.914Z,26.94
2018-06-25T16:56:51.805Z,26.92
2018-06-25T16:59:21.753Z,26.83
2018-06-25T17:01:51.688Z,26.80
2018-06-25T17:04:21.484Z,26.75
2018-06-25T17:06:51.411Z,26.64
2018-06-25T17:09:21.232Z,26.64
2018-06-25T17:11:51.102Z,26.46
2018-06-25T17:14:21.048Z,26.44
2018-06-25T17:16:50.933Z,26.31
2018-06-25T17:19:20.800Z,26.21
2018-06-25T17:21:50.649Z,26.16
2018-06-25T17:24:20.476Z,26.06
2018-06-25T17:26:50.367Z,26.00
2018-06-25T17:29:20.243Z,25.90
2018-06-25T17:31:50.125Z,25.86
2018-06-25T17:34:19.922Z,25.83
2018-06-25T17:36:49.784Z,25.74
2018-06-25T17:39:19.672Z,25.55
2018-06-25T17:41:49.472Z,25.48
2018-06-25T17:44:19.355Z,25.38
2018-06-25T17:46:49.286Z,25.39
2018-06-25T17:49:19.096Z,25.26
2018-06-25T17:51:48.981Z,25.02
2018-06-25T17:54:18.910Z,24.96
2018-06-25T17:56:48.733Z,24.82
2018-06-25T17:59:18.580Z,24.87
2018-06-25T18:01:48.445Z,24.89
2018-06-25T18:04:18.293Z,24.87
2018-06-25T18:06:48.409Z,24.84
2018-06-25T18:09:18.315Z,24.81
2018-06-25T18:11:48.149Z,24.73
2018-06-25T18:14:18.007Z,24.68
2018-06-25T18:16:47.855Z,24.62
2018-06-25T18:19:17.746Z,24.59
2018-06-25T18:21:47.595Z,24.53
2018-06-25T18:24:17.468Z,24.45
2018-06-25T18:26:47.340Z,24.40
2018-06-25T18:29:17.148Z,24.38
2018-06-25T18:31:47.024Z,24.35
2018-06-25T18:34:16.904Z,24.22
2018-06-25T18:36:47.099Z,24.17
2018-06-25T18:39:16.900Z,24.13
2018-06-25T18:41:46.755Z,24.08
2018-06-25T18:44:16.607Z,24.01
2018-06-25T18:46:46.452Z,24.01
2018-06-25T18:49:16.324Z,23.95
2018-06-25T18:51:46.115Z,23.90
2018-06-25T18:54:15.971Z,23.86
2018-06-25T18:56:45.800Z,23.74
2018-06-25T18:59:15.654Z,23.74
2018-06-25T19:01:45.550Z,23.69
2018-06-25T19:04:15.481Z,23.67
2018-06-25T19:06:45.364Z,23.62
2018-06-25T19:09:15.169Z,23.57
2018-06-25T19:11:45.052Z,23.49
2018-06-25T19:14:14.837Z,23.46
2018-06-25T19:16:44.700Z,23.36
2018-06-25T19:19:14.531Z,23.26
2018-06-25T19:21:44.419Z,23.17
2018-06-25T19:24:14.965Z,23.17
2018-06-25T19:26:44.756Z,23.12
2018-06-25T19:29:14.612Z,23.06
2018-06-25T19:31:44.420Z,23.00
2018-06-25T19:34:14.290Z,22.85
2018-06-25T19:36:44.089Z,22.78
2018-06-25T19:39:14.536Z,22.74
2018-06-25T19:41:44.404Z,22.64
2018-06-25T19:44:14.240Z,22.60
2018-06-25T19:46:44.133Z,22.46
2018-06-25T19:49:13.952Z,22.45
2018-06-25T19:51:43.816Z,22.39
2018-06-25T19:54:14.176Z,22.27
2018-06-25T19:56:43.993Z,22.26
2018-06-25T19:59:13.863Z,22.29
2018-06-25T20:01:43.674Z,22.24
2018-06-25T20:04:13.497Z,22.19
2018-06-25T20:06:43.372Z,22.14
2018-06-25T20:09:13.843Z,22.12
2018-06-25T20:11:43.705Z,22.12
2018-06-25T20:14:13.562Z,22.13
2018-06-25T20:16:43.501Z,22.22
2018-06-25T20:19:13.275Z,22.10
2018-06-25T20:21:43.146Z,21.98
2018-06-25T20:24:13.001Z,22.05
2018-06-25T20:26:42.828Z,22.05
2018-06-25T20:29:13.065Z,21.91
2018-06-25T20:31:42.903Z,21.92
2018-06-25T20:34:12.968Z,21.89
2018-06-25T20:36:42.844Z,21.86
2018-06-25T20:39:13.098Z,21.68
2018-06-25T20:41:42.950Z,21.51
2018-06-25T20:44:13.484Z,21.40
2018-06-25T20:46:43.385Z,21.41
2018-06-25T20:49:13.246Z,21.38
2018-06-25T20:51:43.133Z,21.45
2018-06-25T20:54:12.966Z,21.32
2018-06-25T20:56:42.826Z,21.35
2018-06-25T20:59:12.725Z,21.38
2018-06-25T21:01:42.563Z,21.32
2018-06-25T21:04:12.462Z,21.24
2018-06-25T21:06:42.322Z,21.15
2018-06-25T21:09:13.020Z,21.11
2018-06-25T21:11:43.364Z,21.12
2018-06-25T21:14:13.208Z,21.11
2018-06-25T21:16:43.147Z,20.96
2018-06-25T21:19:12.999Z,20.60
2018-06-25T21:21:42.856Z,20.84
2018-06-25T21:24:12.733Z,20.83
2018-06-25T21:26:42.568Z,20.79
2018-06-25T21:29:12.385Z,20.62
2018-06-25T21:31:42.225Z,20.70
2018-06-25T21:34:12.832Z,20.73
2018-06-25T21:36:42.672Z,20.77
2018-06-25T21:39:12.556Z,20.66
2018-06-25T21:41:42.448Z,20.57
2018-06-25T21:44:12.288Z,20.38
2018-06-25T21:46:42.075Z,20.37
2018-06-25T21:49:11.903Z,20.36
2018-06-25T21:51:41.746Z,20.31
2018-06-25T21:54:11.543Z,20.30
2018-06-25T21:56:41.370Z,20.25
2018-06-25T21:59:11.246Z,20.22
2018-06-25T22:01:41.235Z,20.15
2018-06-25T22:04:11.103Z,20.21
2018-06-25T22:06:40.952Z,20.20
2018-06-25T22:09:10.829Z,20.18
2018-06-25T22:11:40.728Z,20.17
2018-06-25T22:14:10.919Z,19.93
2018-06-25T22:16:40.848Z,19.93
2018-06-25T22:19:10.689Z,20.05
2018-06-25T22:21:41.377Z,20.06
2018-06-25T22:24:11.213Z,20.00
2018-06-25T22:26:41.076Z,20.05
2018-06-25T22:29:10.932Z,20.04
2018-06-25T22:31:40.732Z,20.00
2018-06-25T22:34:10.576Z,20.02
2018-06-25T22:36:40.388Z,19.97
2018-06-25T22:39:11.904Z,19.95
2018-06-25T22:41:42.216Z,19.93
2018-06-25T22:44:13.372Z,19.98
2018-06-25T22:46:44.096Z,19.93
2018-06-25T22:49:14.658Z,20.06
2018-06-25T22:51:44.474Z,20.09
2018-06-25T22:54:14.316Z,20.00
2018-06-25T22:56:44.196Z,20.01
2018-06-25T22:59:14.055Z,19.98
2018-06-25T23:01:43.886Z,19.83
2018-06-25T23:04:14.593Z,19.89
2018-06-25T23:06:44.436Z,19.85
2018-06-25T23:09:14.423Z,19.94
2018-06-25T23:11:44.260Z,19.84
2018-06-25T23:14:14.057Z,19.73
2018-06-25T23:16:43.882Z,19.69
2018-06-25T23:19:14.244Z,19.73
2018-06-25T23:21:44.041Z,19.78
2018-06-25T23:24:13.883Z,19.70
2018-06-25T23:26:43.724Z,19.68
2018-06-25T23:29:13.560Z,19.76
2018-06-25T23:31:43.373Z,19.65
2018-06-25T23:34:13.219Z,19.66
2018-06-25T23:36:43.033Z,19.68
2018-06-25T23:39:13.268Z,19.61
2018-06-25T23:41:43.204Z,19.56
2018-06-25T23:44:13.061Z,19.64
2018-06-25T23:46:42.928Z,19.68
2018-06-25T23:49:12.757Z,19.68
2018-06-25T23:51:42.611Z,19.66
2018-06-25T23:54:12.496Z,19.62
2018-06-25T23:56:42.336Z,19.59
2018-06-25T23:59:12.171Z,19.48
